Tiempo atmosférico en la estación meteorológica de Alhama de Murcia, Murcia (157 m.)



Fecha
DESCASC
Temp. máxima en grados centígrados (hora)
DESCASC
Temp. mínima en grados centígrados (hora)
DESCASC
Temp. media en grados centígrados
DESCASC
Racha de viento máxima en m/sg (hora)
DESCASC
Velocidad máxima media en intervalos de 10 minutos(hora)
DESCASC
Precipitaciones diarias en mm
DESCASC
Precipitaciones de 00:00 a 06:00 en mm
DESCASC
Precipitaciones de 06:00 a 12:00 en mm
DESCASC
Precipitaciones de 12:00 a 18:00 en mm
DESCASC
Precipitaciones de 18:00 a 24:00 en mm
DESCASC
22-01-2020 14.9 (14:20) 5.4 (23:59) 10.1 5 (14:30) 3.06 (08:00) 0.2 0.2 0 0 0
21-01-2020 11.2 (15:50) 6.9 (06:10) 9 7.5 (03:00) 3.89 (02:50) 42 17.4 17.4 0 7.2
20-01-2020 7.4 (14:50) 4.2 (08:00) 5.8 14.72 (04:10) 8.06 (05:00) 29 4.8 9 7 8.2
19-01-2020 13.6 (11:50) 4.4 (00:00) 9 11.94 (21:50) 6.67 (17:30) 12.6 0 0 0.2 12.4
18-01-2020 14.6 (15:10) 5 (00:00) 9.8 10.28 (18:00) 6.39 (17:50) 0.4 0 0.4 0 0
17-01-2020 20.4 (15:40) 1.7 (00:00) 11 5 (12:00) 3.33 (11:50) 0 0 0 0 0
16-01-2020 18.6 (16:30) 1.6 (00:00) 10.1 6.39 (21:20) 3.33 (21:20) 0 0 0 0 0
15-01-2020 17.9 (15:20) 0.5 (00:00) 9.2 7.78 (17:20) 5 (20:20) 0 0 0 0 0
14-01-2020 17.1 (16:10) 0.4 (00:00) 8.8 4.72 (16:30) 2.5 (05:20) 0 0 0 0 0
13-01-2020 15.5 (15:10) -1.4 (-00:0) 7.1 8.33 (17:30) 5 (17:30) 0 0 0 0 0
12-01-2020 16.6 (15:50) 0.1 (00:00) 8.4 6.67 (15:00) 4.17 (14:30) 0 0 0 0 0
11-01-2020 15.8 (15:30) 3.4 (00:00) 9.6 7.22 (04:40) 4.44 (04:40) 0 0 0 0 0
10-01-2020 15.5 (16:20) 4 (00:00) 9.8 8.89 (12:40) 5.28 (13:00) 0 0 0 0 0
09-01-2020 16.1 (15:30) 4 (00:00) 10.1 7.22 (21:30) 4.72 (21:30) 0 0 0 0 0
08-01-2020 15 (15:20) 0.3 (00:00) 7.7 5.83 (12:30) 3.61 (12:30) 0.2 0 0.2 0 0
07-01-2020 16.3 (15:40) -0.2 (00:00) 8 6.67 (16:30) 3.61 (16:40) 0 0 0 0 0
06-01-2020 15.4 (15:10) 0.2 (00:00) 7.8 3.33 (16:20) 2.5 (19:30) 0.2 0 0.2 0 0
05-01-2020 16.7 (16:20) 0.7 (00:00) 8.7 3.61 (15:40) 2.78 (21:10) 0 0 0 0 0
04-01-2020 12.8 (15:00) 3.7 (00:00) 8.3 5 (01:00) 3.33 (00:20) 0 0 0 0 0
03-01-2020 17.6 (16:00) 2.5 (00:00) 10.1 5.56 (12:30) 3.06 (22:10) 0 0 0 0 0
02-01-2020 12.3 (15:20) 5.1 (00:00) 8.7 3.06 (14:20) 2.22 (20:20) 0 0 0 0 0
01-01-2020 16.3 (16:20) 1 (00:00) 8.6 4.17 (18:00) 1.94 (18:30) 0.2 0 0.2 0 0
31-12-2019 13.6 (15:50) 2.5 (00:00) 8.1 3.89 (12:00) 2.5 (11:50) 0 0 0 0 0
30-12-2019 -- (--) -- (--) -- -- (--) -- (--) -- 0 0 -- 0
29-12-2019 16.2 (16:30) 5.8 (00:00) 11 3.33 (14:50) 2.22 (04:40) 0 0 0 0 0
28-12-2019 16.9 (16:30) 3 (00:00) 9.9 4.17 (13:20) 2.78 (13:10) 0 0 0 0 0
27-12-2019 17.3 (15:40) 5.9 (00:00) 11.6 4.44 (13:30) 2.5 (12:30) 0 0 0 0 0
26-12-2019 23.4 (14:30) 5.9 (00:00) 14.6 5.83 (16:20) 3.89 (20:10) 0 0 0 0 0
25-12-2019 19.3 (15:40) 3.9 (00:00) 11.6 2.78 (13:00) 2.22 (06:50) 0 0 0 0 0

Gráficas

Temp. máximas Temp. mínimas Temp. medias Precipitaciones Rachas de viento máximas Velocidades máximas media en intervalos de 10 minutos

Datos horarios

Fecha y hora oficial Temperatura (ºC) Velocidad del viento (km/h) Dirección del viento Racha (km/h) Dirección de racha Precipitación (mm) Presión (hPa) Tendencia (hPa) Humedad (%)
2020-01-23 23:00:00 9.5 6 Nordeste 14 Nordeste 0 -- -- 100
2020-01-23 22:00:00 8.5 3 Nordeste 10 Nordeste 0 -- -- 98
2020-01-23 21:00:00 8.4 3 Nordeste 15 Nordeste 0 -- -- 94
2020-01-23 20:00:00 9.5 4 Nordeste 17 Nordeste 0 -- -- 92
2020-01-23 19:00:00 10.6 3 Nordeste 10 Este 0 -- -- 86
2020-01-23 18:00:00 12.6 2 Norte 11 Este 0 -- -- 82
2020-01-23 17:00:00 14.6 7 Nordeste 13 Nordeste 0 -- -- 69
2020-01-23 16:00:00 14.5 8 Norte 15 Norte 0 -- -- 75
2020-01-23 15:00:00 14.3 8 Nordeste 14 Nordeste 0 -- -- 74
2020-01-23 14:00:00 13.5 10 Nordeste 14 Nordeste 0 -- -- 76
2020-01-23 13:00:00 12.8 7 Nordeste 12 Nordeste 0 -- -- 76
2020-01-23 12:00:00 11.3 5 Norte 9 Nordeste 0 -- -- 82
2020-01-23 11:00:00 9.3 2 Nordeste 7 Nordeste 0 -- -- 100
2020-01-23 10:00:00 6.9 3 Nordeste 9 Este 0 -- -- 100
2020-01-23 09:00:00 6.3 7 Este 9 Este 0 -- -- 100
2020-01-23 08:00:00 5.5 5 Nordeste 8 Este 0 -- -- 100
2020-01-23 07:00:00 5.2 5 Nordeste 9 Este 0 -- -- 100
2020-01-23 06:00:00 4.8 6 Este 9 Este 0 -- -- 100
2020-01-23 05:00:00 5 4 Nordeste 6 Este 0 -- -- 100
2020-01-23 04:00:00 4.7 0 Calma 7 Sur 0 -- -- 100
2020-01-23 03:00:00 4.6 4 Sur 6 Sur 0 -- -- 100
2020-01-23 02:00:00 4.5 0 Calma 5 Sudoeste 0 -- -- 99
2020-01-23 01:00:00 5 2 Oeste 4 Nordeste 0 -- -- 99
2020-01-23 00:00:00 5.4 0 Calma 6 Sur 0 -- -- 98
2020-01-22 23:00:00 6 3 Sudoeste 6 Sudoeste 0 -- -- 97
2020-01-22 22:00:00 6.7 0 Calma 7 Sudoeste 0 -- -- 94
2020-01-22 21:00:00 8.3 6 Sur 10 Sudoeste 0 -- -- 93
2020-01-22 20:00:00 9 4 Este 9 Este 0 -- -- 90
2020-01-22 19:00:00 10.7 5 Este 9 Norte 0 -- -- 86
2020-01-22 18:00:00 12.6 6 Este 10 Nordeste 0 -- -- 80
2020-01-22 17:00:00 14 7 Nordeste 14 Nordeste 0 -- -- 70
2020-01-22 16:00:00 14.7 8 Este 13 Este 0 -- -- 67
2020-01-22 15:00:00 14 8 Nordeste 18 Nordeste 0 -- -- 70
2020-01-22 14:00:00 14.6 9 Nordeste 16 Nordeste 0 -- -- 66
2020-01-22 13:00:00 13.1 8 Nordeste 16 Nordeste 0 -- -- 77
2020-01-22 12:00:00 12.2 8 Nordeste 13 Norte 0 -- -- 87
2020-01-22 11:00:00 10.7 8 Nordeste 13 Norte 0 -- -- 99
2020-01-22 10:00:00 9.1 8 Norte 15 Nordeste 0 -- -- 100
2020-01-22 09:00:00 8.3 9 Norte 17 Norte 0 -- -- 100
2020-01-22 08:00:00 7.9 11 Norte 17 Nordeste 0 -- -- 100
2020-01-22 07:00:00 8.2 10 Nordeste 18 Nordeste 0 -- -- 100
2020-01-22 06:00:00 8 4 Nordeste 12 Nordeste 0 -- -- 100
2020-01-22 05:00:00 7.8 5 Nordeste 9 Nordeste 0 -- -- 100
2020-01-22 04:00:00 7.4 5 Nordeste 8 Nordeste 0 -- -- 100
2020-01-22 03:00:00 7.4 2 Nordeste 6 Norte 0 -- -- 100
2020-01-22 02:00:00 7.8 4 Norte 9 Nordeste 0 -- -- 100
2020-01-22 01:00:00 7.8 5 Nordeste 7 Nordeste 0.2 -- -- 99
2020-01-22 00:00:00 8 4 Nordeste 9 Este 2.2 -- -- 99
2020-01-21 23:00:00 8.1 0 Calma 13 Nordeste 4 -- -- 98
2020-01-21 22:00:00 8.3 6 Nordeste 12 Este 0.2 -- -- 97
2020-01-21 21:00:00 8.3 4 Nordeste 6 Nordeste 0.4 -- -- 97
2020-01-21 20:00:00 8.4 4 Nordeste 5 Nordeste 0.4 -- -- 96
2020-01-21 19:00:00 8.9 3 Nordeste 10 Nordeste 0 -- -- 91
2020-01-21 18:00:00 9.4 5 Este 10 Nordeste 0 -- -- 85
2020-01-21 17:00:00 10.3 6 Norte 11 Noroeste 0 -- -- 80
2020-01-21 16:00:00 11.2 2 Norte 15 Noroeste 0 -- -- 73
2020-01-21 15:00:00 11 8 Este 20 Este 0 -- -- 80
2020-01-21 14:00:00 9.9 6 Nordeste 20 Nordeste 0 -- -- 85
2020-01-21 13:00:00 8.6 13 Nordeste 22 Este 0 -- -- 88
2020-01-21 12:00:00 7.4 12 Nordeste 22 Nordeste 1 -- -- 92
2020-01-21 11:00:00 7.1 6 Sudeste 16 Este 5 -- -- 95
2020-01-21 10:00:00 7.4 7 Este 20 Este 3.2 -- -- 95
2020-01-21 09:00:00 7.1 9 Este 17 Sudeste 3.4 -- -- 97
2020-01-21 08:00:00 7.4 9 Nordeste 20 Norte 1.4 -- -- 92
2020-01-21 07:00:00 7.1 6 Este 24 Nordeste 3.4 -- -- 97
2020-01-21 06:00:00 7 11 Nordeste 20 Nordeste 2.4 -- -- 96
2020-01-21 05:00:00 7.2 6 Nordeste 15 Este 4.8 -- -- 97
2020-01-21 04:00:00 7.3 8 Nordeste 21 Este 3.8 -- -- 97
2020-01-21 03:00:00 7.3 13 Nordeste 27 Nordeste 3.8 -- -- 94
2020-01-21 02:00:00 7.5 12 Norte 24 Norte 0.4 -- -- 95
2020-01-21 01:00:00 7.3 7 Nordeste 16 Este 2.2 -- -- 96
2020-01-21 00:00:00 7.1 6 Norte 16 Este 0 -- -- 96
2020-01-20 23:00:00 7.1 6 Nordeste 15 Este 1.8 -- -- 97
2020-01-20 22:00:00 6.7 6 Este 13 Nordeste 0.6 -- -- 98
2020-01-20 21:00:00 6.6 9 Nordeste 14 Este 0.8 -- -- 98
2020-01-20 20:00:00 6.5 5 Este 14 Nordeste 3 -- -- 97
2020-01-20 19:00:00 6.6 9 Nordeste 15 Este 2 -- -- 97
2020-01-20 18:00:00 6.5 6 Nordeste 13 Este 5.8 -- -- 96
2020-01-20 17:00:00 6.9 3 Este 19 Este 0.8 -- -- 94
2020-01-20 16:00:00 6.8 9 Nordeste 23 Norte 0.4 -- -- 91
2020-01-20 15:00:00 7.2 13 Nordeste 26 Nordeste 0 -- -- 87
2020-01-20 14:00:00 6.9 8 Nordeste 19 Nordeste 0 -- -- 88
2020-01-20 13:00:00 6.2 10 Nordeste 24 Norte 0 -- -- 90
2020-01-20 12:00:00 5.4 11 Nordeste 27 Nordeste 0.4 -- -- 89
2020-01-20 11:00:00 4.7 12 Este 25 Noroeste 2.6 -- -- 92
2020-01-20 10:00:00 4.9 11 Nordeste 22 Norte 1.2 -- -- 94
2020-01-20 09:00:00 4.7 11 Nordeste 30 Norte 1.8 -- -- 94
2020-01-20 08:00:00 4.2 14 Norte 35 Norte 1.8 -- -- 93
2020-01-20 07:00:00 4.8 17 Norte 38 Norte 1.2 -- -- 89
2020-01-20 06:00:00 5.7 27 Norte 51 Norte 0.2 -- -- 80
2020-01-20 05:00:00 5.9 29 Norte 53 Norte 0.2 -- -- 80
2020-01-20 04:00:00 5.8 27 Norte 49 Norte 0.4 -- -- 83
2020-01-20 03:00:00 5.7 23 Norte 42 Norte 0.8 -- -- 89
2020-01-20 02:00:00 5.8 23 Norte 43 Norte 1.8 -- -- 93
2020-01-20 01:00:00 6.3 23 Norte 45 Norte 1.4 -- -- 92
2020-01-20 00:00:00 6.3 21 Norte 43 Norte 1.2 -- -- 88
2020-01-19 23:00:00 6.3 21 Norte 40 Norte 1 -- -- 89
2020-01-19 22:00:00 4.7 21 Norte 43 Norte 2.8 -- -- 97
2020-01-19 21:00:00 4.6 19 Norte 33 Noroeste 2.2 -- -- 94
2020-01-19 20:00:00 5.2 13 Norte 36 Norte 4.6 -- -- 95
2020-01-19 19:00:00 6.3 15 Norte 30 Norte 0.6 -- -- 88
2020-01-19 18:00:00 7.5 16 Norte 41 Norte 0 -- -- 75
2020-01-19 17:00:00 9.3 21 Norte 42 Norte 0 -- -- 66
2020-01-19 16:00:00 9.1 18 Norte 38 Noroeste 0.2 -- -- 80
2020-01-19 15:00:00 10.2 20 Norte 34 Noroeste 0 -- -- 71
2020-01-19 14:00:00 11.9 23 Norte 38 Noroeste 0 -- -- 58
2020-01-19 13:00:00 13.2 19 Norte 36 Norte 0 -- -- 50
2020-01-19 12:00:00 13.5 15 Norte 31 Norte 0 -- -- 52
2020-01-19 11:00:00 11.8 13 Norte 31 Norte 0 -- -- 60
2020-01-19 10:00:00 11 14 Nordeste 27 Nordeste 0 -- -- 64
2020-01-19 09:00:00 9.6 11 Nordeste 27 Nordeste 0 -- -- 70
2020-01-19 08:00:00 8.5 10 Nordeste 23 Norte 0 -- -- 75
2020-01-19 07:00:00 9.4 12 Norte 34 Nordeste 0 -- -- 74
2020-01-19 06:00:00 7.2 9 Nordeste 22 Norte 0 -- -- 92
2020-01-19 05:00:00 8.9 12 Nordeste 21 Nordeste 0 -- -- 96
2020-01-19 04:00:00 6.1 8 Sur 17 Sur 0 -- -- 98
2020-01-19 03:00:00 6.6 5 Este 13 Sudeste 0 -- -- 97
2020-01-19 02:00:00 6.7 6 Nordeste 14 Nordeste 0 -- -- 96
2020-01-19 01:00:00 7.3 7 Este 9 Este 0 -- -- 94
2020-01-19 00:00:00 8.8 3 Noroeste 22 Sur 0 -- -- 90
2020-01-18 23:00:00 10.7 5 Oeste 25 Sur 0 -- -- 84
2020-01-18 22:00:00 12.4 15 Sudoeste 26 Sur 0 -- -- 77
2020-01-18 21:00:00 11.8 9 Sudoeste 30 Sudoeste 0 -- -- 80
2020-01-18 20:00:00 13.2 15 Sur 27 Sur 0 -- -- 68
2020-01-18 19:00:00 12.6 13 Sudoeste 35 Sur 0 -- -- 71
2020-01-18 18:00:00 12.9 22 Sur 37 Sur 0 -- -- 71
2020-01-18 17:00:00 13.6 22 Sur 36 Sur 0 -- -- 70
2020-01-18 16:00:00 14.1 20 Sur 36 Sur 0 -- -- 63
2020-01-18 15:00:00 14.5 15 Sur 30 Sur 0 -- -- 60
2020-01-18 14:00:00 12.6 10 Sudoeste 22 Sudoeste 0 -- -- 76
2020-01-18 13:00:00 11.3 6 Sudoeste 9 Sudoeste 0 -- -- 84
2020-01-18 12:00:00 10.5 9 Este 12 Este 0.4 -- -- 89
2020-01-18 11:00:00 8.8 7 Nordeste 12 Este 0 -- -- 86
2020-01-18 10:00:00 8.6 5 Nordeste 11 Nordeste 0 -- -- 85
2020-01-18 09:00:00 6.1 4 Este 8 Este 0 -- -- 93
2020-01-18 08:00:00 5.9 3 Sudoeste 12 Sur 0 -- -- 91
2020-01-18 07:00:00 5.8 7 Sur 10 Sudoeste 0 -- -- 90
2020-01-18 06:00:00 6.9 6 Sudoeste 14 Sur 0 -- -- 87
2020-01-18 05:00:00 5 9 Sudoeste 12 Sudoeste 0 -- -- 96
2020-01-18 04:00:00 5.7 8 Sur 10 Sur 0 -- -- 96
2020-01-18 03:00:00 6.4 4 Sudoeste 8 Oeste 0 -- -- 95
2020-01-18 02:00:00 6.3 0 Calma 9 Sur 0 -- -- 94
2020-01-18 01:00:00 7.3 5 Sur 8 Sudoeste 0 -- -- 93
2020-01-18 00:00:00 7.6 3 Nordeste 5 Nordeste 0 -- -- 91
2020-01-17 23:00:00 7.4 4 Sur 13 Sur 0 -- -- 93
2020-01-17 22:00:00 7.4 2 Nordeste 7 Nordeste 0 -- -- 87
2020-01-17 21:00:00 9.1 2 Oeste 10 Este 0 -- -- 79
2020-01-17 20:00:00 12.9 6 Nordeste 14 Nordeste 0 -- -- 59
2020-01-17 19:00:00 14.1 7 Este 14 Este 0 -- -- 52
2020-01-17 18:00:00 16.2 8 Este 13 Noroeste 0 -- -- 53
2020-01-17 17:00:00 18.1 9 Norte 15 Nordeste 0 -- -- 43
2020-01-17 16:00:00 19.9 4 Norte 15 Nordeste 0 -- -- 37
2020-01-17 15:00:00 19.5 8 Nordeste 13 Nordeste 0 -- -- 36
2020-01-17 14:00:00 18.2 8 Nordeste 14 Nordeste 0 -- -- 38
2020-01-17 13:00:00 16.5 6 Nordeste 16 Nordeste 0 -- -- 42
2020-01-17 12:00:00 13.6 11 Nordeste 18 Nordeste 0 -- -- 54
2020-01-17 11:00:00 10.1 4 Norte 13 Sur 0 -- -- 68
2020-01-17 10:00:00 6.8 3 Sudoeste 9 Noroeste 0 -- -- 82
2020-01-17 09:00:00 4.2 0 Calma 9 Sudeste 0 -- -- 90
2020-01-17 08:00:00 3.9 4 Sudoeste 10 Noroeste 0 -- -- 93
2020-01-17 07:00:00 2 5 Sur 12 Sur 0 -- -- 95
2020-01-17 06:00:00 2 8 Sur 12 Sur 0 -- -- 98
2020-01-17 05:00:00 2.4 6 Sudeste 10 Sur 0 -- -- 95
2020-01-17 04:00:00 2.6 9 Sur 12 Sur 0 -- -- 95
2020-01-17 03:00:00 3.3 4 Sudoeste 10 Oeste 0 -- -- 93
2020-01-17 02:00:00 4 5 Sudoeste 11 Sudoeste 0 -- -- 93
2020-01-17 01:00:00 4.5 5 Sudoeste 10 Sudoeste 0 -- -- 93
2020-01-17 00:00:00 4.9 5 Sudoeste 11 Sudoeste 0 -- -- 93
2020-01-16 23:00:00 5.9 6 Sudoeste 14 Sudoeste 0 -- -- 90
2020-01-16 22:00:00 7.7 8 Sudoeste 23 Sur 0 -- -- 81
2020-01-16 21:00:00 9.4 7 Sudoeste 18 Sudoeste 0 -- -- 74
2020-01-16 20:00:00 9 5 Sudoeste 17 Sudoeste 0 -- -- 79
2020-01-16 19:00:00 10.5 7 Sudoeste 19 Sudoeste 0 -- -- 71
2020-01-16 18:00:00 14.1 5 Sudoeste 10 Sudoeste 0 -- -- 56
2020-01-16 17:00:00 17.7 3 Noroeste 15 Norte 0 -- -- 42
2020-01-16 16:00:00 18.4 4 Noroeste 8 Nordeste 0 -- -- 37
2020-01-16 15:00:00 18.5 5 Oeste 9 Oeste 0 -- -- 33
2020-01-16 14:00:00 17.6 2 Oeste 6 Sudoeste 0 -- -- 38
2020-01-16 13:00:00 15 3 Norte 7 Norte 0 -- -- 47
2020-01-16 12:00:00 12.6 2 Norte 9 Sudoeste 0 -- -- 56
2020-01-16 11:00:00 9.1 5 Sudoeste 9 Sudoeste 0 -- -- 72
2020-01-16 10:00:00 4.4 2 Sudoeste 10 Sur 0 -- -- 90
2020-01-16 09:00:00 2 3 Sur 6 Sur 0 -- -- 95
2020-01-16 08:00:00 1.8 2 Sudoeste 9 Sur 0 -- -- 94
2020-01-16 07:00:00 2.8 8 Sur 13 Sur 0 -- -- 95
2020-01-16 06:00:00 2.4 2 Oeste 13 Este 0 -- -- 95
2020-01-16 05:00:00 2.1 2 Norte 6 Sudoeste 0 -- -- 97
2020-01-16 04:00:00 2.1 5 Sudoeste 7 Sudoeste 0 -- -- 96
2020-01-16 03:00:00 2.4 5 Sudoeste 6 Sudoeste 0 -- -- 96
2020-01-16 02:00:00 2.5 3 Sudoeste 6 Sudoeste 0 -- -- 94
2020-01-16 01:00:00 3.4 2 Sudoeste 8 Sudoeste 0 -- -- 91
2020-01-16 00:00:00 4.5 4 Sudoeste 13 Sudoeste 0 -- -- 88
2020-01-15 23:00:00 5.8 6 Sudoeste 13 Sudoeste 0 -- -- 84
2020-01-15 22:00:00 10.8 9 Sudoeste 20 Sur 0 -- -- 61
2020-01-15 21:00:00 12.3 14 Sur 28 Sur 0 -- -- 58
2020-01-15 20:00:00 12.7 15 Sur 27 Sur 0 -- -- 51
2020-01-15 19:00:00 13.3 14 Sur 27 Sur 0 -- -- 51
2020-01-15 18:00:00 14.2 14 Sur 28 Sur 0 -- -- 48
2020-01-15 17:00:00 16.4 12 Sudoeste 22 Sudoeste 0 -- -- 43
2020-01-15 16:00:00 17.7 14 Sudoeste 23 Sur 0 -- -- 42
2020-01-15 15:00:00 17.5 14 Sur 24 Sur 0 -- -- 39
2020-01-15 14:00:00 17.1 12 Sudoeste 23 Sudoeste 0 -- -- 40
2020-01-15 13:00:00 15 14 Sur 24 Sudoeste 0 -- -- 44
2020-01-15 12:00:00 13.8 13 Sudoeste 24 Sudoeste 0 -- -- 47
2020-01-15 11:00:00 9.1 9 Sudoeste 18 Sudoeste 0 -- -- 67
2020-01-15 10:00:00 4.2 5 Sudoeste 13 Sudoeste 0 -- -- 99
2020-01-15 09:00:00 1.7 6 Sudoeste 9 Sudoeste 0 -- -- 99
2020-01-15 08:00:00 1 4 Sudeste 9 Sur 0 -- -- 99
2020-01-15 07:00:00 0.7 3 Sur 6 Sudoeste 0 -- -- 98
2020-01-15 06:00:00 1.1 3 Sur 5 Sur 0 -- -- 98
2020-01-15 05:00:00 1.5 4 Nordeste 6 Este 0 -- -- 98
2020-01-15 04:00:00 1.6 0 Calma 5 Sur 0 -- -- 96
2020-01-15 03:00:00 2.3 0 Calma 10 Sur 0 -- -- 93
2020-01-15 02:00:00 3.9 3 Sudoeste 9 Este 0 -- -- 88
2020-01-15 01:00:00 3.4 3 Nordeste 10 Norte 0 -- -- 92
2020-01-15 00:00:00 4.5 2 Nordeste 12 Nordeste 0 -- -- 91
2020-01-14 23:00:00 3.5 0 Calma 4 Sur 0 -- -- 96
2020-01-14 22:00:00 5.1 3 Sudoeste 11 Sur 0 -- -- 93
2020-01-14 21:00:00 6.6 9 Sur 12 Sur 0 -- -- 95
2020-01-14 20:00:00 6.8 9 Sur 12 Sur 0 -- -- 92
2020-01-14 19:00:00 7.1 6 Sudoeste 9 Sudoeste 0 -- -- 84
2020-01-14 18:00:00 10.2 5 Sur 12 Sudoeste 0 -- -- 71
2020-01-14 17:00:00 13.9 7 Sudoeste 17 Sudoeste 0 -- -- 59
2020-01-14 16:00:00 16.7 3 Sur 11 Sudoeste 0 -- -- 37
2020-01-14 15:00:00 16.7 5 Sur 14 Oeste 0 -- -- 35
2020-01-14 14:00:00 15.1 4 Oeste 9 Oeste 0 -- -- 34
2020-01-14 13:00:00 13.5 3 Noroeste 6 Noroeste 0 -- -- 34
2020-01-14 12:00:00 11.3 2 Oeste 8 Sudoeste 0 -- -- 46
2020-01-14 11:00:00 7.8 5 Sudoeste 9 Sudoeste 0 -- -- 62
2020-01-14 10:00:00 2.8 3 Sur 10 Este 0 -- -- 86
2020-01-14 09:00:00 3.5 6 Este 12 Este 0 -- -- 75
2020-01-14 08:00:00 2.7 8 Este 11 Este 0 -- -- 80
2020-01-14 07:00:00 1.1 5 Nordeste 7 Nordeste 0 -- -- 97
2020-01-14 06:00:00 0.9 2 Sudeste 12 Sur 0 -- -- 94
2020-01-14 05:00:00 1.9 6 Sudoeste 9 Este 0 -- -- 93
2020-01-14 04:00:00 3.2 5 Este 9 Nordeste 0 -- -- 92
2020-01-14 03:00:00 3.8 4 Nordeste 12 Norte 0 -- -- 99
2020-01-14 02:00:00 2.2 5 Este 9 Este 0 -- -- 99
2020-01-14 01:00:00 2.7 3 Sudoeste 9 Sudoeste 0 -- -- 97
2020-01-14 00:00:00 3.4 6 Sudoeste 10 Sudoeste 0 -- -- 97
2020-01-13 23:00:00 4.9 7 Sudoeste 13 Sur 0 -- -- 96
2020-01-13 22:00:00 5.7 4 Sudoeste 12 Sudoeste 0 -- -- 92
2020-01-13 21:00:00 8.5 4 Sudoeste 20 Sur 0 -- -- 85
2020-01-13 20:00:00 10.8 12 Sur 23 Sur 0 -- -- 78
2020-01-13 19:00:00 11.1 14 Sur 27 Sur 0 -- -- 77
2020-01-13 18:00:00 12.1 15 Sur 30 Sudeste 0 -- -- 73
2020-01-13 17:00:00 13.8 13 Sur 23 Sur 0 -- -- 68
2020-01-13 16:00:00 15 10 Sur 20 Sur 0 -- -- 55
2020-01-13 15:00:00 15.3 12 Sudoeste 27 Sudoeste 0 -- -- 57
2020-01-13 14:00:00 14.9 12 Sudoeste 24 Sudoeste 0 -- -- 60
2020-01-13 13:00:00 11.8 4 Oeste 9 Nordeste 0 -- -- 59
2020-01-13 12:00:00 8.9 2 Este 6 Sudeste 0 -- -- 66
2020-01-13 11:00:00 4.6 2 Oeste 8 Sudoeste 0 -- -- 86
2020-01-13 10:00:00 0.5 2 Sudoeste 7 Sudoeste 0 -- -- 100
2020-01-13 09:00:00 -1.2 6 Sudoeste 8 Sudoeste 0 -- -- 100
2020-01-13 08:00:00 -1.2 3 Sudoeste 6 Sur 0 -- -- 100
2020-01-13 07:00:00 -1.2 2 Sur 5 Sudoeste 0 -- -- 100
2020-01-13 06:00:00 -0.3 4 Sudoeste 6 Sudoeste 0 -- -- 100
2020-01-13 05:00:00 -0.1 3 Sudoeste 5 Sur 0 -- -- 99
2020-01-13 04:00:00 0 3 Sudoeste 4 Sudoeste 0 -- -- 99
2020-01-13 03:00:00 0.7 4 Sudoeste 9 Sur 0 -- -- 99
2020-01-13 02:00:00 1.7 0 Calma 8 Nordeste 0 -- -- 98
2020-01-13 01:00:00 2.9 3 Nordeste 8 Este 0 -- -- 98
2020-01-13 00:00:00 3 5 Este 7 Este 0 -- -- 98
2020-01-12 23:00:00 3.3 3 Nordeste 4 Este 0 -- -- 97
2020-01-12 22:00:00 3.9 0 Calma 4 Norte 0 -- -- 95
2020-01-12 21:00:00 5.4 2 Nordeste 11 Este 0 -- -- 91
2020-01-12 20:00:00 6.4 8 Nordeste 11 Nordeste 0 -- -- 90
2020-01-12 19:00:00 8 0 Calma 15 Sudeste 0 -- -- 67
2020-01-12 18:00:00 11.8 10 Sudeste 12 Este 0 -- -- 50
2020-01-12 17:00:00 15.5 8 Nordeste 17 Nordeste 0 -- -- 34
2020-01-12 16:00:00 16.6 9 Nordeste 20 Noroeste 0 -- -- 32
2020-01-12 15:00:00 16.5 12 Norte 24 Norte 0 -- -- 31
2020-01-12 14:00:00 16 12 Norte 22 Noroeste 0 -- -- 33
2020-01-12 13:00:00 15 13 Norte 23 Norte 0 -- -- 34
2020-01-12 12:00:00 13.5 6 Nordeste 18 Noroeste 0 -- -- 43
2020-01-12 11:00:00 8.8 5 Nordeste 10 Este 0 -- -- 69
2020-01-12 10:00:00 2.4 3 Sudoeste 4 Sudeste 0 -- -- 100
2020-01-12 09:00:00 0.3 4 Sudoeste 10 Sur 0 -- -- 100
2020-01-12 08:00:00 0.2 7 Sudoeste 11 Sur 0 -- -- 99
2020-01-12 07:00:00 0.3 6 Sudoeste 10 Sur 0 -- -- 100
2020-01-12 06:00:00 0.2 4 Sudoeste 7 Sur 0 -- -- 99
2020-01-12 05:00:00 0.7 4 Sudoeste 7 Sudoeste 0 -- -- 98
2020-01-12 04:00:00 1.2 5 Sudoeste 9 Sur 0 -- -- 99
2020-01-12 03:00:00 1.4 3 Oeste 5 Oeste 0 -- -- 99
2020-01-12 02:00:00 1.7 0 Calma 4 Sur 0 -- -- 98
2020-01-12 01:00:00 2.4 3 Sur 6 Sudoeste 0 -- -- 97
2020-01-12 00:00:00 3.4 3 Sudoeste 8 Sur 0 -- -- 96
2020-01-11 23:00:00 4.2 4 Sudoeste 7 Sudoeste 0 -- -- 95
2020-01-11 22:00:00 5.2 2 Sudeste 8 Sudeste 0 -- -- 94
2020-01-11 21:00:00 5.9 5 Sudeste 8 Sur 0 -- -- 91
2020-01-11 20:00:00 7 6 Sur 10 Sudoeste 0 -- -- 85
2020-01-11 19:00:00 8.6 3 Sur 12 Sudeste 0 -- -- 71
2020-01-11 18:00:00 11.8 8 Sudeste 10 Sudeste 0 -- -- 58
2020-01-11 17:00:00 14.7 7 Nordeste 15 Nordeste 0 -- -- 43
2020-01-11 16:00:00 15.6 7 Nordeste 17 Nordeste 0 -- -- 40
2020-01-11 15:00:00 15.6 11 Nordeste 19 Norte 0 -- -- 40
2020-01-11 14:00:00 15.5 8 Nordeste 20 Nordeste 0 -- -- 43
2020-01-11 13:00:00 14.6 8 Nordeste 20 Nordeste 0 -- -- 45
2020-01-11 12:00:00 13.5 11 Este 23 Este 0 -- -- 51
2020-01-11 11:00:00 12.1 8 Este 16 Nordeste 0 -- -- 55
2020-01-11 10:00:00 9.8 10 Nordeste 18 Nordeste 0 -- -- 62
2020-01-11 09:00:00 6.8 7 Este 15 Este 0 -- -- 79
2020-01-11 08:00:00 8.5 6 Este 15 Nordeste 0 -- -- 69
2020-01-11 07:00:00 9.8 8 Nordeste 20 Noroeste 0 -- -- 65
2020-01-11 06:00:00 9.9 7 Nordeste 17 Este 0 -- -- 60
2020-01-11 05:00:00 10.2 5 Nordeste 26 Nordeste 0 -- -- 63
2020-01-11 04:00:00 10.3 8 Nordeste 20 Nordeste 0 -- -- 64
2020-01-11 03:00:00 10.6 5 Nordeste 21 Nordeste 0 -- -- 65
2020-01-11 02:00:00 10.6 11 Nordeste 22 Este 0 -- -- 65
2020-01-11 01:00:00 10.5 9 Nordeste 23 Norte 0 -- -- 67
2020-01-11 00:00:00 10.9 15 Norte 27 Norte 0 -- -- 63
2020-01-10 23:00:00 10.6 10 Norte 21 Nordeste 0 -- -- 65
2020-01-10 22:00:00 10.9 15 Nordeste 29 Nordeste 0 -- -- 64
2020-01-10 21:00:00 10.8 15 Nordeste 29 Nordeste 0 -- -- 63
2020-01-10 20:00:00 9.1 8 Nordeste 18 Nordeste 0 -- -- 67
2020-01-10 19:00:00 9.2 7 Este 11 Este 0 -- -- 72
2020-01-10 18:00:00 12.5 9 Nordeste 28 Norte 0 -- -- 55
2020-01-10 17:00:00 15.1 15 Norte 27 Noroeste 0 -- -- 44
2020-01-10 16:00:00 15.1 14 Noroeste 26 Noroeste 0 -- -- 46
2020-01-10 15:00:00 15.1 14 Noroeste 26 Noroeste 0 -- -- 49
2020-01-10 14:00:00 15.3 15 Norte 31 Norte 0 -- -- 52
2020-01-10 13:00:00 14.3 19 Noroeste 32 Norte 0 -- -- 55
2020-01-10 12:00:00 13.7 8 Norte 20 Norte 0 -- -- 59
2020-01-10 11:00:00 12.7 7 Nordeste 24 Noroeste 0 -- -- 60
2020-01-10 10:00:00 12.8 8 Nordeste 31 Nordeste 0 -- -- 58
2020-01-10 09:00:00 8.2 6 Nordeste 14 Nordeste 0 -- -- 81
2020-01-10 08:00:00 5.4 9 Nordeste 19 Este 0 -- -- 100
2020-01-10 07:00:00 4.6 5 Este 9 Este 0 -- -- 100
2020-01-10 06:00:00 4.3 0 Calma 8 Sudeste 0 -- -- 98
2020-01-10 05:00:00 4.7 5 Sur 6 Sur 0 -- -- 98
2020-01-10 04:00:00 5.6 0 Calma 8 Sur 0 -- -- 97
2020-01-10 03:00:00 6.1 4 Sudoeste 12 Sudoeste 0 -- -- 98
2020-01-10 02:00:00 6.5 6 Sudoeste 15 Sudoeste 0 -- -- 98
2020-01-10 01:00:00 7.3 5 Sudoeste 13 Sur 0 -- -- 95
2020-01-10 00:00:00 8.3 3 Sudoeste 18 Sudoeste 0 -- -- 91
2020-01-09 23:00:00 9.8 9 Sudoeste 24 Sudoeste 0 -- -- 86
2020-01-09 22:00:00 11 16 Sudoeste 26 Sudoeste 0 -- -- 81
2020-01-09 21:00:00 11.2 12 Sur 22 Sur 0 -- -- 79
2020-01-09 20:00:00 10.2 5 Sudoeste 22 Sudoeste 0 -- -- 82
2020-01-09 19:00:00 10.2 11 Sudoeste 20 Sur 0 -- -- 84
2020-01-09 18:00:00 12.1 6 Sudoeste 15 Sur 0 -- -- 75
2020-01-09 17:00:00 14.9 5 Sudoeste 13 Sudoeste 0 -- -- 61
2020-01-09 16:00:00 16.1 6 Sudoeste 11 Sudoeste 0 -- -- 55
2020-01-09 15:00:00 15.9 6 Sudoeste 13 Sudoeste 0 -- -- 55
2020-01-09 14:00:00 14.7 3 Nordeste 8 Nordeste 0 -- -- 62
2020-01-09 13:00:00 13 3 Este 6 Este 0 -- -- 74
2020-01-09 12:00:00 10.2 0 Calma 4 Norte 0 -- -- 90
2020-01-09 11:00:00 8.4 3 Nordeste 6 Nordeste 0 -- -- 99
2020-01-09 10:00:00 5.8 0 Calma 6 Nordeste 0 -- -- 100
2020-01-09 09:00:00 4.1 6 Este 8 Este 0 -- -- 100
2020-01-09 08:00:00 5.2 3 Sur 8 Nordeste 0 -- -- 99
2020-01-09 07:00:00 7 5 Nordeste 9 Nordeste 0 -- -- 100
2020-01-09 06:00:00 6.6 6 Nordeste 8 Nordeste 0 -- -- 100
2020-01-09 05:00:00 5.1 3 Nordeste 5 Nordeste 0 -- -- 100
2020-01-09 04:00:00 5.5 3 Sudoeste 4 Sudoeste 0 -- -- 99
2020-01-09 03:00:00 5.2 3 Sur 4 Sur 0 -- -- 98
2020-01-09 02:00:00 6.4 3 Sudoeste 5 Sudoeste 0 -- -- 98
2020-01-09 01:00:00 7.6 3 Nordeste 6 Este 0 -- -- 99
2020-01-09 00:00:00 7.1 4 Nordeste 6 Nordeste 0 -- -- 100
2020-01-08 23:00:00 6 2 Sudoeste 10 Sudoeste 0 -- -- 99
2020-01-08 22:00:00 5.2 2 Nordeste 4 Este 0 -- -- 98
2020-01-08 21:00:00 5.2 3 Nordeste 5 Nordeste 0 -- -- 96
2020-01-08 20:00:00 5.8 2 Nordeste 6 Nordeste 0 -- -- 93
2020-01-08 19:00:00 7.5 5 Este 8 Nordeste 0 -- -- 88
2020-01-08 18:00:00 11 6 Este 12 Nordeste 0 -- -- 76
2020-01-08 17:00:00 13.8 8 Nordeste 14 Nordeste 0 -- -- 60
2020-01-08 16:00:00 14.8 10 Nordeste 16 Nordeste 0 -- -- 51
2020-01-08 15:00:00 14.8 5 Norte 17 Norte 0 -- -- 46
2020-01-08 14:00:00 14.2 9 Nordeste 15 Nordeste 0 -- -- 47
2020-01-08 13:00:00 13.3 11 Nordeste 21 Nordeste 0 -- -- 49
2020-01-08 12:00:00 10.3 7 Nordeste 10 Norte 0 -- -- 73
2020-01-08 11:00:00 6.2 0 Calma 6 Sudoeste 0 -- -- 99
2020-01-08 10:00:00 3.4 3 Nordeste 5 Nordeste 0 -- -- 100
2020-01-08 09:00:00 0.3 0 Calma 8 Sur 0 -- -- 100
2020-01-08 08:00:00 0.6 6 Sur 10 Sur 0 -- -- 100
2020-01-08 07:00:00 0.8 4 Sur 7 Sudoeste 0.2 -- -- 100
2020-01-08 06:00:00 0.7 2 Sudoeste 5 Oeste 0 -- -- 100
2020-01-08 05:00:00 1.1 2 Sur 6 Sur 0 -- -- 100
2020-01-08 04:00:00 1.4 4 Sudoeste 9 Sudoeste 0 -- -- 100
2020-01-08 03:00:00 1.9 5 Sudoeste 12 Sudoeste 0 -- -- 100
2020-01-08 02:00:00 2.4 7 Sudoeste 10 Sudoeste 0 -- -- 100
2020-01-08 01:00:00 2.7 4 Sudoeste 9 Sur 0 -- -- 99
2020-01-08 00:00:00 3.7 6 Sudoeste 10 Sudoeste 0 -- -- 99
2020-01-07 23:00:00 3.7 4 Sudoeste 7 Sudoeste 0 -- -- 98
2020-01-07 22:00:00 5.5 4 Sudoeste 10 Sudoeste 0 -- -- 98
2020-01-07 21:00:00 6 6 Sudoeste 11 Sudoeste 0 -- -- 97
2020-01-07 20:00:00 7.7 4 Sudoeste 15 Sudoeste 0 -- -- 96
2020-01-07 19:00:00 8.4 6 Sudoeste 12 Sudoeste 0 -- -- 93
2020-01-07 18:00:00 11.1 5 Sur 18 Sudoeste 0 -- -- 85
2020-01-07 17:00:00 14 11 Sudoeste 24 Sudoeste 0 -- -- 73
2020-01-07 16:00:00 16.3 8 Sudoeste 17 Sudoeste 0 -- -- 53
2020-01-07 15:00:00 15.9 4 Sudoeste 8 Sudoeste 0 -- -- 53
2020-01-07 14:00:00 14.2 4 Oeste 10 Oeste 0 -- -- 62
2020-01-07 13:00:00 12.2 5 Norte 10 Norte 0 -- -- 60
2020-01-07 12:00:00 9.7 5 Nordeste 9 Norte 0 -- -- 70
2020-01-07 11:00:00 6.2 3 Nordeste 8 Nordeste 0 -- -- 100
2020-01-07 10:00:00 2.5 3 Sudoeste 4 Oeste 0 -- -- 100
2020-01-07 09:00:00 0.9 4 Nordeste 7 Nordeste 0 -- -- 100
2020-01-07 08:00:00 -0.1 0 Calma 6 Sudoeste 0 -- -- 100
2020-01-07 07:00:00 0.8 0 Calma 9 Sur 0 -- -- 100
2020-01-07 06:00:00 0.6 5 Sur 7 Sudoeste 0 -- -- 100
2020-01-07 05:00:00 0.9 3 Norte 5 Este 0 -- -- 100
2020-01-07 04:00:00 1.2 0 Calma 4 Oeste 0 -- -- 100
2020-01-07 03:00:00 1.8 0 Calma 4 Sudeste 0 -- -- 99
2020-01-07 02:00:00 2.8 0 Calma 11 Sudoeste 0 -- -- 99
2020-01-07 01:00:00 4.6 9 Sudoeste 14 Sudoeste 0 -- -- 100
2020-01-07 00:00:00 3.3 5 Sudoeste 9 Sudoeste 0 -- -- 99
2020-01-06 23:00:00 3.7 6 Sudoeste 9 Sudoeste 0 -- -- 98
2020-01-06 22:00:00 5 3 Sudoeste 12 Sudoeste 0 -- -- 97
2020-01-06 21:00:00 6.2 5 Sudoeste 10 Sur 0 -- -- 97
2020-01-06 20:00:00 6.6 6 Sur 11 Sur 0 -- -- 95
2020-01-06 19:00:00 7.1 5 Sudoeste 8 Sudoeste 0 -- -- 89
2020-01-06 18:00:00 10.9 6 Este 8 Este 0 -- -- 78
2020-01-06 17:00:00 14.3 3 Norte 12 Nordeste 0 -- -- 57
2020-01-06 16:00:00 15.4 4 Nordeste 6 Sudoeste 0 -- -- 53
2020-01-06 15:00:00 14.9 3 Oeste 8 Oeste 0 -- -- 52
2020-01-06 14:00:00 13.8 3 Oeste 9 Oeste 0 -- -- 53
2020-01-06 13:00:00 11.9 4 Nordeste 9 Nordeste 0 -- -- 66
2020-01-06 12:00:00 8.5 3 Norte 6 Norte 0 -- -- 86
2020-01-06 11:00:00 4.9 0 Calma 3 Oeste 0 -- -- 100
2020-01-06 10:00:00 1.9 0 Calma 3 Sur 0.2 -- -- 100